Navy Homeport, Mississippi
Current Conditions -  °F | °C
As of 1:53 PM on Wednesday 26 Nov 2014 (Local Time) from KPQL Reporting Station
Clear Clear  
Wind Chill: 58°   Ceiling: Unl
Heat Index: 58°   Visibility: 10mi
Dew Point: 33°   Wind: 9mph
Humidity: 39%   Direction: 200°SSW
Pressure: 30.19"   Gusts: NA
Location:  30.3627°N, 88.5463°W
Report Text: KPQL 261953Z 20008KT 10SM CLR 14/01 A3019 RMK AO2 SLP225 T01440006
Loading
Personal Weather Stations






























Interactive Weather Map New forecast layout! Learn more

10-Day Weather Forecast

Advertisements
Track Severe Weather on mobile